createdAt,value
2022-09-13T00:01:00.062Z,6.63
2022-09-13T00:03:27.663Z,6.80
2022-09-13T00:05:54.721Z,6.03
2022-09-13T00:08:22.001Z,7.22
2022-09-13T00:10:49.333Z,6.85
2022-09-13T00:13:18.021Z,7.65
2022-09-13T00:15:49.669Z,6.78
2022-09-13T00:18:18.213Z,7.00
2022-09-13T00:20:45.295Z,7.18
2022-09-13T00:23:12.910Z,7.13
2022-09-13T00:25:40.269Z,7.40
2022-09-13T00:28:07.509Z,7.57
2022-09-13T00:30:34.551Z,6.97
2022-09-13T00:33:04.594Z,7.22
2022-09-13T00:35:32.104Z,7.90
2022-09-13T00:38:01.881Z,6.90
2022-09-13T00:40:30.613Z,7.10
2022-09-13T00:42:57.484Z,7.35
2022-09-13T00:45:24.251Z,7.00
2022-09-13T00:47:58.336Z,6.68
2022-09-13T00:50:41.569Z,7.80
2022-09-13T00:53:16.501Z,7.18
2022-09-13T00:55:47.179Z,7.97
2022-09-13T00:58:29.449Z,6.95
2022-09-13T01:00:59.970Z,7.35
2022-09-13T01:03:30.033Z,7.95
2022-09-13T01:06:08.428Z,7.68
2022-09-13T01:08:37.236Z,7.55
2022-09-13T01:11:08.642Z,7.65
2022-09-13T01:13:36.459Z,8.77
2022-09-13T01:16:03.681Z,7.97
2022-09-13T01:18:30.521Z,7.05
2022-09-13T01:21:19.354Z,7.60
2022-09-13T01:24:15.859Z,7.70
2022-09-13T01:27:07.567Z,8.25
2022-09-13T01:30:02.249Z,7.93
2022-09-13T01:32:36.195Z,7.65
2022-09-13T01:35:02.799Z,7.93
2022-09-13T01:37:38.531Z,7.57
2022-09-13T01:40:18.007Z,7.32
2022-09-13T01:43:19.371Z,7.60
2022-09-13T01:45:53.803Z,6.88
2022-09-13T01:49:05.227Z,7.45
2022-09-13T01:51:45.631Z,7.93
2022-09-13T01:54:18.076Z,8.40
2022-09-13T01:57:17.095Z,8.30
2022-09-13T01:59:57.307Z,7.47
2022-09-13T02:02:40.616Z,7.30
2022-09-13T02:05:20.094Z,7.93
2022-09-13T02:07:58.307Z,8.02
2022-09-13T02:10:35.084Z,8.93
2022-09-13T02:13:05.591Z,7.78
2022-09-13T02:15:38.715Z,7.97
2022-09-13T02:18:10.068Z,7.63
2022-09-13T02:20:43.683Z,9.23
2022-09-13T02:23:15.042Z,8.50
2022-09-13T02:25:42.766Z,9.68
2022-09-13T02:28:13.336Z,9.20
2022-09-13T02:30:46.625Z,7.85
2022-09-13T02:33:25.453Z,8.23
2022-09-13T02:36:15.848Z,7.95
2022-09-13T02:38:59.824Z,7.68
2022-09-13T02:41:58.590Z,8.10
2022-09-13T02:44:31.960Z,8.13
2022-09-13T02:47:14.201Z,8.55
2022-09-13T02:50:08.704Z,8.40
2022-09-13T02:53:20.460Z,8.23
2022-09-13T02:56:08.000Z,7.95
2022-09-13T02:58:44.886Z,8.15
2022-09-13T03:01:13.150Z,7.82
2022-09-13T03:03:39.829Z,8.00
2022-09-13T03:06:06.944Z,7.70
2022-09-13T03:08:34.945Z,8.55
2022-09-13T03:11:44.601Z,8.65
2022-09-13T03:14:43.140Z,9.37
2022-09-13T03:17:36.041Z,8.88
2022-09-13T03:20:19.368Z,9.63
2022-09-13T03:23:10.396Z,8.80
2022-09-13T03:25:49.150Z,8.40
2022-09-13T03:28:32.439Z,8.80
2022-09-13T03:31:21.398Z,9.15
2022-09-13T03:34:10.605Z,8.57
2022-09-13T03:36:52.105Z,8.70
2022-09-13T03:39:41.686Z,8.45
2022-09-13T03:42:24.899Z,8.73
2022-09-13T03:44:55.629Z,8.57
2022-09-13T03:47:25.054Z,7.88
2022-09-13T03:49:53.307Z,7.95
2022-09-13T03:52:20.141Z,7.82
2022-09-13T03:54:46.896Z,8.88
2022-09-13T03:57:17.581Z,8.18
2022-09-13T03:59:52.832Z,8.15
2022-09-13T04:02:21.089Z,7.93
2022-09-13T04:04:48.593Z,8.48
2022-09-13T04:07:21.165Z,7.63
2022-09-13T04:09:48.078Z,8.23
2022-09-13T04:12:16.528Z,7.85
2022-09-13T04:14:44.256Z,7.72
2022-09-13T04:17:12.180Z,7.88
2022-09-13T04:19:39.531Z,8.30
2022-09-13T04:22:06.596Z,8.48
2022-09-13T04:24:33.429Z,7.45
2022-09-13T04:27:01.953Z,9.43
2022-09-13T04:29:29.824Z,8.55
2022-09-13T04:31:56.575Z,8.90
2022-09-13T04:34:23.715Z,8.40
2022-09-13T04:36:52.441Z,8.10
2022-09-13T04:39:20.625Z,8.98
2022-09-13T04:41:48.932Z,9.02
2022-09-13T04:44:17.123Z,8.10
2022-09-13T04:46:47.715Z,9.02
2022-09-13T04:49:15.686Z,9.82
2022-09-13T04:51:42.548Z,9.32
2022-09-13T04:54:14.580Z,9.50
2022-09-13T04:56:43.145Z,8.82
2022-09-13T04:59:11.789Z,8.93
2022-09-13T05:01:38.711Z,9.43
2022-09-13T05:04:07.333Z,10.43
2022-09-13T05:06:34.196Z,9.40
2022-09-13T05:09:00.962Z,8.52
2022-09-13T05:11:29.605Z,10.15
2022-09-13T05:13:58.777Z,8.77
2022-09-13T05:16:28.079Z,8.15
2022-09-13T05:18:55.536Z,8.75
2022-09-13T05:21:24.155Z,9.27
2022-09-13T05:23:52.425Z,9.45
2022-09-13T05:26:19.638Z,8.88
2022-09-13T05:28:46.600Z,9.48
2022-09-13T05:31:26.124Z,9.73
2022-09-13T05:33:56.853Z,9.35
2022-09-13T05:36:23.500Z,10.00
2022-09-13T05:39:01.631Z,8.85
2022-09-13T05:41:36.942Z,9.18
2022-09-13T05:44:12.102Z,10.05
2022-09-13T05:46:40.052Z,9.45
2022-09-13T05:49:06.688Z,9.70
2022-09-13T05:51:33.388Z,10.52
2022-09-13T05:54:00.268Z,9.90
2022-09-13T05:56:29.130Z,10.00
2022-09-13T05:58:56.527Z,9.65
2022-09-13T06:01:25.728Z,9.23
2022-09-13T06:03:55.311Z,9.32
2022-09-13T06:06:23.542Z,9.88
2022-09-13T06:08:57.632Z,9.90
2022-09-13T06:11:26.217Z,10.70
2022-09-13T06:13:53.526Z,9.40
2022-09-13T06:16:21.096Z,11.88
2022-09-13T06:18:48.905Z,11.52
2022-09-13T06:21:19.302Z,12.18
2022-09-13T06:23:52.043Z,10.38
2022-09-13T06:26:21.471Z,10.45
2022-09-13T06:28:49.955Z,11.97
2022-09-13T06:31:18.688Z,11.27
2022-09-13T06:33:46.461Z,10.85
2022-09-13T06:36:15.998Z,10.48
2022-09-13T06:38:42.791Z,10.23
2022-09-13T06:41:12.802Z,9.85
2022-09-13T06:43:40.109Z,9.30
2022-09-13T06:46:10.580Z,9.07
2022-09-13T06:48:39.488Z,8.75
2022-09-13T06:51:08.716Z,9.50
2022-09-13T06:53:36.331Z,8.60
2022-09-13T06:56:10.109Z,8.05
2022-09-13T06:58:37.975Z,8.10
2022-09-13T07:01:15.816Z,8.45
2022-09-13T07:03:48.484Z,8.95
2022-09-13T07:06:22.534Z,7.65
2022-09-13T07:08:51.677Z,7.32
2022-09-13T07:11:19.968Z,7.78
2022-09-13T07:13:55.532Z,5.97
2022-09-13T07:16:27.027Z,6.35
2022-09-13T07:18:56.083Z,6.65
2022-09-13T07:21:23.345Z,7.18
2022-09-13T07:23:51.132Z,6.47
2022-09-13T07:26:18.391Z,7.50
2022-09-13T07:28:47.532Z,6.72
2022-09-13T07:31:16.871Z,6.45
2022-09-13T07:33:44.997Z,7.53
2022-09-13T07:36:12.698Z,7.05
2022-09-13T07:38:42.073Z,7.10
2022-09-13T07:41:13.363Z,6.97
2022-09-13T07:43:40.472Z,18.80
2022-09-13T07:46:10.052Z,7.68
2022-09-13T07:48:39.485Z,7.63
2022-09-13T07:51:07.329Z,7.23
2022-09-13T07:53:35.742Z,7.88
2022-09-13T07:56:04.292Z,6.82
2022-09-13T07:58:32.099Z,7.15
2022-09-13T08:01:20.811Z,7.65
2022-09-13T08:03:56.205Z,6.95
2022-09-13T08:06:24.969Z,7.65
2022-09-13T08:08:51.957Z,7.95
2022-09-13T08:11:23.856Z,6.78
2022-09-13T08:13:52.359Z,7.18
2022-09-13T08:16:20.896Z,6.53
2022-09-13T08:18:51.152Z,6.88
2022-09-13T08:23:45.575Z,6.25
2022-09-13T08:26:12.369Z,6.82
2022-09-13T08:28:43.098Z,6.50
2022-09-13T08:31:13.946Z,6.93
2022-09-13T08:33:46.444Z,6.55
2022-09-13T08:36:14.195Z,6.15
2022-09-13T08:38:46.418Z,5.75
2022-09-13T08:41:47.842Z,4.90
2022-09-13T08:44:36.122Z,5.95
2022-09-13T08:47:21.590Z,5.47
2022-09-13T08:49:52.186Z,5.78
2022-09-13T08:52:34.878Z,4.82
2022-09-13T08:55:20.088Z,4.47
2022-09-13T08:58:01.915Z,3.95
2022-09-13T09:00:47.814Z,3.95
2022-09-13T09:03:36.179Z,4.20
2022-09-13T09:06:03.239Z,4.38
2022-09-13T09:08:43.416Z,4.00
2022-09-13T09:14:20.926Z,3.75
2022-09-13T09:17:27.238Z,3.47
2022-09-13T09:20:20.456Z,4.40
2022-09-13T09:22:49.011Z,3.75
2022-09-13T09:25:15.712Z,4.68
2022-09-13T09:27:42.414Z,4.22
2022-09-13T09:30:15.749Z,4.53
2022-09-13T09:32:51.337Z,3.90
2022-09-13T09:35:42.772Z,3.53
2022-09-13T09:38:33.522Z,3.65
2022-09-13T09:41:06.017Z,3.38
2022-09-13T09:43:40.100Z,3.42
2022-09-13T09:46:10.392Z,4.00
2022-09-13T09:48:51.383Z,3.90
2022-09-13T09:51:20.845Z,3.78
2022-09-13T09:53:52.388Z,3.58
2022-09-13T09:56:29.109Z,4.35
2022-09-13T09:58:56.002Z,3.53
2022-09-13T10:01:25.442Z,3.63
2022-09-13T10:04:04.923Z,3.70
2022-09-13T10:06:32.489Z,3.80
2022-09-13T10:09:06.298Z,3.88
2022-09-13T10:11:59.912Z,4.78
2022-09-13T10:14:38.409Z,3.67
2022-09-13T10:17:06.711Z,3.50
2022-09-13T10:19:33.712Z,3.20
2022-09-13T10:22:06.085Z,3.40
2022-09-13T10:24:33.589Z,2.88
2022-09-13T10:27:00.559Z,2.92
2022-09-13T10:29:29.173Z,2.67
2022-09-13T10:31:58.847Z,2.55
2022-09-13T10:34:35.930Z,3.13
2022-09-13T10:37:17.794Z,2.97
2022-09-13T10:40:04.217Z,3.55
2022-09-13T10:42:31.592Z,3.60
2022-09-13T10:45:06.682Z,2.90
2022-09-13T10:47:39.213Z,2.88
2022-09-13T10:50:23.146Z,3.15
2022-09-13T10:52:55.168Z,3.10
2022-09-13T10:55:40.732Z,3.00
2022-09-13T10:58:08.053Z,3.40
2022-09-13T11:01:02.700Z,3.80
2022-09-13T11:04:00.686Z,3.75
2022-09-13T11:06:34.429Z,3.60
2022-09-13T11:09:10.380Z,4.25
2022-09-13T11:11:43.286Z,3.60
2022-09-13T11:14:23.286Z,3.92
2022-09-13T11:17:20.847Z,4.25
2022-09-13T11:20:13.493Z,3.63
2022-09-13T11:23:12.514Z,4.00
2022-09-13T11:26:08.947Z,4.00
2022-09-13T11:28:49.383Z,4.43
2022-09-13T11:31:38.623Z,3.58
2022-09-13T11:34:28.926Z,3.40
2022-09-13T11:37:04.495Z,3.47
2022-09-13T11:39:47.301Z,3.50
2022-09-13T11:42:14.977Z,3.63
2022-09-13T11:44:56.386Z,3.05
2022-09-13T11:47:49.186Z,3.53
2022-09-13T11:50:31.537Z,3.20
2022-09-13T11:53:30.266Z,3.30
2022-09-13T11:56:05.377Z,3.03
2022-09-13T11:58:39.444Z,3.20
2022-09-13T12:01:10.442Z,3.63
2022-09-13T12:03:47.410Z,3.53
2022-09-13T12:06:25.409Z,3.88
2022-09-13T12:08:57.478Z,4.78
2022-09-13T12:11:34.541Z,4.22
2022-09-13T12:14:08.126Z,3.83
2022-09-13T12:16:48.725Z,3.30
2022-09-13T12:19:17.888Z,3.30
2022-09-13T12:21:45.509Z,3.53
2022-09-13T12:24:48.388Z,3.40
2022-09-13T12:27:41.768Z,4.97
2022-09-13T12:30:20.493Z,4.75
2022-09-13T12:32:49.081Z,4.10
2022-09-13T12:35:48.900Z,4.22
2022-09-13T12:38:37.399Z,4.85
2022-09-13T12:41:35.438Z,4.57
2022-09-13T12:44:28.565Z,5.40
2022-09-13T12:47:38.728Z,4.07
2022-09-13T12:53:40.881Z,3.50
2022-09-13T12:56:16.704Z,3.40
2022-09-13T12:59:07.936Z,3.40
2022-09-13T13:01:34.891Z,3.42
2022-09-13T13:04:28.886Z,3.63
2022-09-13T13:07:08.285Z,4.00
2022-09-13T13:09:42.712Z,4.13
2022-09-13T13:12:27.470Z,4.57
2022-09-13T13:14:54.715Z,4.10
2022-09-13T13:17:41.063Z,3.97
2022-09-13T13:20:45.103Z,4.03
2022-09-13T13:23:23.793Z,4.18
2022-09-13T13:26:10.453Z,4.47
2022-09-13T13:28:46.238Z,6.43
2022-09-13T13:31:25.287Z,6.03
2022-09-13T13:34:06.455Z,5.18
2022-09-13T13:36:46.827Z,4.80
2022-09-13T13:39:25.710Z,4.43
2022-09-13T13:41:54.452Z,4.38
2022-09-13T13:44:21.292Z,4.55
2022-09-13T13:46:50.127Z,4.35
2022-09-13T13:49:32.191Z,4.07
2022-09-13T13:52:25.208Z,4.57
2022-09-13T13:54:55.166Z,3.80
2022-09-13T13:57:50.657Z,3.58
2022-09-13T14:00:26.893Z,3.85
2022-09-13T14:03:03.468Z,3.58
2022-09-13T14:05:57.907Z,4.03
2022-09-13T14:08:46.419Z,3.42
2022-09-13T14:11:41.528Z,3.80
2022-09-13T14:14:31.458Z,3.65
2022-09-13T14:17:23.412Z,3.58
2022-09-13T14:19:56.942Z,2.90
2022-09-13T14:22:28.465Z,3.30
2022-09-13T14:24:58.710Z,3.25
2022-09-13T14:27:33.965Z,3.30
2022-09-13T14:30:47.878Z,3.20
2022-09-13T14:33:36.527Z,3.50
2022-09-13T14:36:22.799Z,3.45
2022-09-13T14:38:55.282Z,2.92
2022-09-13T14:41:30.989Z,3.10
2022-09-13T14:44:25.042Z,3.33
2022-09-13T14:47:04.183Z,3.38
2022-09-13T14:49:47.306Z,3.78
2022-09-13T14:52:26.473Z,4.30
2022-09-13T14:54:57.847Z,4.80
2022-09-13T14:57:34.093Z,4.55
2022-09-13T15:00:09.904Z,5.88
2022-09-13T15:02:39.761Z,3.97
2022-09-13T15:05:12.754Z,4.63
2022-09-13T15:07:41.355Z,4.00
2022-09-13T15:10:28.781Z,4.63
2022-09-13T15:12:58.267Z,4.03
2022-09-13T15:15:33.961Z,4.47
2022-09-13T15:18:26.292Z,4.13
2022-09-13T15:20:54.942Z,3.63
2022-09-13T15:23:29.346Z,4.03
2022-09-13T15:26:07.963Z,4.10
2022-09-13T15:28:59.509Z,4.00
2022-09-13T15:31:28.661Z,4.22
2022-09-13T15:34:14.152Z,6.37
2022-09-13T15:36:42.618Z,5.63
2022-09-13T15:39:09.214Z,5.22
2022-09-13T15:41:37.664Z,5.13
2022-09-13T15:44:07.787Z,4.70
2022-09-13T15:49:08.524Z,4.47
2022-09-13T15:51:39.048Z,4.97
2022-09-13T15:54:16.093Z,4.32
2022-09-13T15:56:45.647Z,5.22
2022-09-13T15:59:17.673Z,5.10
2022-09-13T16:01:47.762Z,4.80
2022-09-13T16:06:41.652Z,4.95
2022-09-13T16:09:24.316Z,5.47
2022-09-13T16:11:52.201Z,5.30
2022-09-13T16:14:19.493Z,5.40
2022-09-13T16:16:46.772Z,4.88
2022-09-13T16:19:19.588Z,6.05
2022-09-13T16:21:47.074Z,5.43
2022-09-13T16:24:13.921Z,6.03
2022-09-13T16:26:41.309Z,5.97
2022-09-13T16:29:08.036Z,6.00
2022-09-13T16:31:34.724Z,6.13
2022-09-13T16:34:01.701Z,6.07
2022-09-13T16:36:29.004Z,6.07
2022-09-13T16:38:56.984Z,5.85
2022-09-13T16:41:25.262Z,6.35
2022-09-13T16:43:54.885Z,5.47
2022-09-13T16:46:22.099Z,6.10
2022-09-13T16:48:57.381Z,7.03
2022-09-13T16:51:24.920Z,6.43
2022-09-13T16:53:53.457Z,6.18
2022-09-13T16:56:23.855Z,7.20
2022-09-13T16:58:51.804Z,6.88
2022-09-13T17:01:23.843Z,7.30
2022-09-13T17:03:54.578Z,6.88
2022-09-13T17:06:24.697Z,7.03
2022-09-13T17:08:57.840Z,8.10
2022-09-13T17:11:27.411Z,11.25
2022-09-13T17:13:55.039Z,8.20
2022-09-13T17:16:30.716Z,8.27
2022-09-13T17:19:01.733Z,6.47
2022-09-13T17:21:29.011Z,5.95
2022-09-13T17:23:55.732Z,6.85
2022-09-13T17:26:23.028Z,6.97
2022-09-13T17:28:49.959Z,6.82
2022-09-13T17:31:16.908Z,7.78
2022-09-13T17:33:43.684Z,6.57
2022-09-13T17:36:13.554Z,7.05
2022-09-13T17:38:42.207Z,7.13
2022-09-13T17:41:15.427Z,7.88
2022-09-13T17:43:45.485Z,8.57
2022-09-13T17:46:15.387Z,9.18
2022-09-13T17:48:45.498Z,8.93
2022-09-13T17:51:15.372Z,8.98
2022-09-13T17:53:48.437Z,7.68
2022-09-13T17:56:21.413Z,8.18
2022-09-13T17:58:48.435Z,7.90
2022-09-13T18:01:15.646Z,8.43
2022-09-13T18:03:42.889Z,8.32
2022-09-13T18:06:11.756Z,7.35
2022-09-13T18:08:39.523Z,9.00
2022-09-13T18:11:13.784Z,8.77
2022-09-13T18:13:42.304Z,7.65
2022-09-13T18:16:29.706Z,7.57
2022-09-13T18:18:57.078Z,7.70
2022-09-13T18:21:25.253Z,8.25
2022-09-13T18:23:54.960Z,8.27
2022-09-13T18:26:23.602Z,7.38
2022-09-13T18:29:01.579Z,7.25
2022-09-13T18:31:31.257Z,7.88
2022-09-13T18:34:00.955Z,7.38
2022-09-13T18:36:29.172Z,7.28
2022-09-13T18:38:56.918Z,8.05
2022-09-13T18:41:30.148Z,13.93
2022-09-13T18:43:57.155Z,45.72
2022-09-13T18:46:27.257Z,85.68
2022-09-13T18:48:57.574Z,67.90
2022-09-13T18:51:29.538Z,68.30
2022-09-13T18:53:58.124Z,101.47
2022-09-13T18:56:25.633Z,97.57
2022-09-13T18:58:53.653Z,96.00
2022-09-13T19:01:25.101Z,54.83
2022-09-13T19:03:53.176Z,44.92
2022-09-13T19:06:26.235Z,41.05
2022-09-13T19:08:54.896Z,55.60
2022-09-13T19:11:45.129Z,49.55
2022-09-13T19:14:16.250Z,35.92
2022-09-13T19:16:43.148Z,34.90
2022-09-13T19:19:09.995Z,21.30
2022-09-13T19:21:36.767Z,15.05
2022-09-13T19:24:09.398Z,13.65
2022-09-13T19:26:39.936Z,19.52
2022-09-13T19:29:10.539Z,14.65
2022-09-13T19:31:48.084Z,11.15
2022-09-13T19:34:16.097Z,9.68
2022-09-13T19:36:44.312Z,8.95
2022-09-13T19:39:11.751Z,7.47
2022-09-13T19:41:39.266Z,7.50
2022-09-13T19:44:07.131Z,7.35
2022-09-13T19:46:37.854Z,7.55
2022-09-13T19:49:05.792Z,7.88
2022-09-13T19:51:37.138Z,7.50
2022-09-13T19:54:05.814Z,7.35
2022-09-13T19:56:40.714Z,7.55
2022-09-13T19:59:09.580Z,7.07
2022-09-13T20:01:39.463Z,8.40
2022-09-13T20:04:09.521Z,6.90
2022-09-13T20:06:44.253Z,8.05
2022-09-13T20:09:12.945Z,7.45
2022-09-13T20:11:42.565Z,7.35
2022-09-13T20:14:09.939Z,7.22
2022-09-13T20:16:39.605Z,8.43
2022-09-13T20:19:29.546Z,7.55
2022-09-13T20:21:55.477Z,7.60
2022-09-13T20:24:22.150Z,7.60
2022-09-13T20:26:51.988Z,8.38
2022-09-13T20:29:20.672Z,7.38
2022-09-13T20:31:47.343Z,7.30
2022-09-13T20:34:17.198Z,7.35
2022-09-13T20:36:47.236Z,8.50
2022-09-13T20:39:15.297Z,7.63
2022-09-13T20:41:43.291Z,8.43
2022-09-13T20:44:10.019Z,7.97
2022-09-13T20:46:37.636Z,7.97
2022-09-13T20:49:05.428Z,8.38
2022-09-13T20:51:34.725Z,8.63
2022-09-13T20:54:01.730Z,8.60
2022-09-13T20:56:30.371Z,9.32
2022-09-13T20:59:00.192Z,8.93
2022-09-13T21:01:28.861Z,8.68
2022-09-13T21:03:56.338Z,8.68
2022-09-13T21:06:25.795Z,8.32
2022-09-13T21:08:53.399Z,8.07
2022-09-13T21:11:30.132Z,8.07
2022-09-13T21:14:00.333Z,9.13
2022-09-13T21:18:56.553Z,8.32
2022-09-13T21:21:27.699Z,8.57
2022-09-13T21:23:55.872Z,8.23
2022-09-13T21:26:26.810Z,9.15
2022-09-13T21:28:54.114Z,9.18
2022-09-13T21:31:25.092Z,8.55
2022-09-13T21:33:56.842Z,9.90
2022-09-13T21:36:24.400Z,9.07
2022-09-13T21:38:54.157Z,9.18
2022-09-13T21:41:22.451Z,9.63
2022-09-13T21:43:49.566Z,10.05
2022-09-13T21:46:25.672Z,10.43
2022-09-13T21:48:55.577Z,10.10
2022-09-13T21:51:24.927Z,10.05
2022-09-13T21:53:58.249Z,11.43
2022-09-13T21:56:27.400Z,10.50
2022-09-13T21:58:59.722Z,10.90
2022-09-13T22:01:32.271Z,10.52
2022-09-13T22:04:00.848Z,10.52
2022-09-13T22:06:33.122Z,9.93
2022-09-13T22:09:04.752Z,11.02
2022-09-13T22:11:39.257Z,10.68
2022-09-13T22:14:08.017Z,10.75
2022-09-13T22:16:37.245Z,10.85
2022-09-13T22:19:09.254Z,11.25
2022-09-13T22:21:41.995Z,10.85
2022-09-13T22:24:12.548Z,10.82
2022-09-13T22:26:40.767Z,9.77
2022-09-13T22:29:08.738Z,11.02
2022-09-13T22:31:38.516Z,10.73
2022-09-13T22:34:06.652Z,10.02
2022-09-13T22:36:33.963Z,10.90
2022-09-13T22:39:00.659Z,10.32
2022-09-13T22:41:30.338Z,11.25
2022-09-13T22:43:59.221Z,10.48
2022-09-13T22:46:46.786Z,10.90
2022-09-13T22:49:17.200Z,10.65
2022-09-13T22:51:47.485Z,10.18
2022-09-13T22:56:41.830Z,11.02
2022-09-13T22:59:13.138Z,11.15
2022-09-13T23:01:39.862Z,10.48
2022-09-13T23:04:07.130Z,11.77
2022-09-13T23:06:35.118Z,11.95
2022-09-13T23:09:04.438Z,11.38
2022-09-13T23:11:33.956Z,12.90
2022-09-13T23:14:03.163Z,12.60
2022-09-13T23:16:36.560Z,10.57
2022-09-13T23:19:03.979Z,10.73
2022-09-13T23:21:33.780Z,10.88
2022-09-13T23:24:01.657Z,10.95
2022-09-13T23:26:29.260Z,12.75
2022-09-13T23:29:00.466Z,12.27
2022-09-13T23:31:29.776Z,11.48
2022-09-13T23:33:59.623Z,11.03
2022-09-13T23:36:29.537Z,11.02
2022-09-13T23:38:58.186Z,10.85
2022-09-13T23:41:26.016Z,10.95
2022-09-13T23:43:53.683Z,12.45
2022-09-13T23:46:20.750Z,11.20
2022-09-13T23:48:47.618Z,11.40
2022-09-13T23:51:17.140Z,12.48
2022-09-13T23:53:43.952Z,11.25
2022-09-13T23:56:15.078Z,11.63
2022-09-13T23:58:41.760Z,11.30
